Terminal Aerodrome Forecast
Issued by NWS

Home | Current Version | Previous Version | Text Only | Print | Product List | Glossary On
Versions: 1 2 3 4 5 6 7 8 9 10 11 12 13 14
000
FTUS42 TJSJ 242339
TAFJBQ
TAF
TJBQ 242339Z 2500/2524 10006KT P6SM FEW035 BKN060 BKN100
     FM250200 11004KT P6SM FEW060 SCT120
     FM251400 08012KT P6SM SCT030
     FM251700 07014KT P6SM VCTS SCT025CB BKN050
      TEMPO 2518/2522 VRB15G24KT 3SM TSRA BKN025CB
     FM252300 09009KT P6SM FEW030 SCT060 SCT120
      AMD NOT SKED 2502/2511=

USA.gov is the U.S. government's official web portal to all federal, state and local government web resources and services.